Nearby METAR Reports

 

KIMT - Iron Mountain, Michigan, USA
Distance from station: 0 29mi, 47km
Updated: Mon, 15-Oct-2018 5:54pm CDT
Clear
Clear
 Wind from SW
Wind: SW 6 mph , 9 km/h
Temperature: 36°F , 2°C
Wind Chill: 31°F , -1°C
Dew Point: 27°F , -3°C
Humidity: 70%
Barometer: 30.04 inHg , 1017.3 hPa
Clouds: Clear
Visibility: 10 miles , 16 km
2018/10/15 22:54 KIMT 152254Z AUTO 23005KT 10SM CLR 02/M03 A3004 RMK AO2 SLP185 T00171033
KMNM - Menominee, Michigan, USA
Distance from station: SE 31mi, 51km
Updated: Mon, 15-Oct-2018 5:56pm CDT
Few Clouds
Few Clouds
 Wind from WSW
Wind: WSW 5 mph , 7 km/h
Temperature: 37°F , 3°C
Wind Chill: 33°F , 1°C
Dew Point: 23°F , -5°C
Humidity: 56%
Barometer: 30.12 inHg , 1020 hPa
Clouds: Few Clouds
Visibility: 10 miles , 16 km
Cloud details: Few Clouds 4900 ft
2018/10/15 22:56 KMNM 152256Z AUTO 25004KT 10SM FEW049 03/M05 A3012 RMK AO2 SLP221 T00281050 PNO $
 
KOCQ - Oconto, Wisconsin, USA
Distance from station: SSE 38mi, 61km
Updated: Mon, 15-Oct-2018 6:15pm CDT
Clear
Clear
 Wind from WSW
Wind: WSW 6 mph , 9 km/h
Temperature: 34°F , 1°C
Wind Chill: 29°F , -2°C
Dew Point: 25°F , -4°C
Humidity: 70%
Barometer: 30.13 inHg , 1020.3 hPa
Clouds: Clear
Visibility: 10 miles , 16 km
2018/10/15 23:15 KOCQ 152315Z AUTO 24005KT 10SM CLR 01/M04 A3013 RMK AO1 T00111045
KEZS - Shawano Muni, Wisconsin, USA
Distance from station: SSW 48mi, 77km
Updated: Mon, 15-Oct-2018 6:15pm CDT
Clear
Clear
 Wind from WSW
Wind: WSW 7 mph , 11 km/h
Temperature: 37°F , 3°C
Wind Chill: 32°F , 0°C
Dew Point: 25°F , -4°C
Humidity: 60%
Barometer: 30.13 inHg , 1020.3 hPa
Clouds: Clear
Visibility: 10 miles , 16 km
2018/10/15 23:15 KEZS 152315Z AUTO 24006KT 10SM CLR 03/M04 A3013 RMK AO2 T00281045
 
KAIG - Antigo/Langlade, Wisconsin, USA
Distance from station: WSW 51mi, 82km
Updated: Mon, 15-Oct-2018 6:15pm CDT
Clear
Clear
 Wind from WSW
Wind: WSW 8 mph , 13 km/h
Temperature: 32°F , 0°C
Wind Chill: 25°F , -4°C
Dew Point: 25°F , -4°C
Humidity: 75%
Barometer: 30.09 inHg , 1019 hPa
Clouds: Clear
Visibility: 10 miles , 16 km
2018/10/15 23:15 KAIG 152315Z AUTO 24007KT 10SM CLR 00/M04 A3009 RMK AO2 T10031044
KSUE - Sturgeon Bay, Wisconsin, USA
Distance from station: SE 51mi, 82km
Updated: Mon, 15-Oct-2018 5:56pm CDT
Overcast
Overcast
 Wind from W
Wind: W 15 mph , 24 km/h, Gust: 24 mph , 39 km/h
Temperature: 37°F , 3°C
Wind Chill: 28°F , -2°C
Dew Point: 25°F , -4°C
Humidity: 60%
Barometer: 30.13 inHg , 1020.3 hPa
Clouds: Overcast
Visibility: 10 miles , 16 km
Cloud details: Overcast 4500 ft
2018/10/15 22:56 KSUE 152256Z AUTO 26013G21KT 10SM OVC045 03/M04 A3013 RMK AO2 SLP226 T00281044
 
KESC - Escanaba, Michigan, USA
Distance from station: ENE 56mi, 90km
Updated: Mon, 15-Oct-2018 5:56pm CDT
Overcast
Overcast
 Wind from W
Wind: W 10 mph , 17 km/h
Temperature: 37°F , 3°C
Wind Chill: 30°F , -1°C
Dew Point: 27°F , -3°C
Humidity: 65%
Barometer: 30.07 inHg , 1018.3 hPa
Clouds: Overcast
Visibility: 10 miles , 16 km
Cloud details: Overcast 4600 ft
2018/10/15 22:56 KESC 152256Z AUTO 26009KT 10SM OVC046 03/M03 A3007 RMK AO2 SLP208 T00281033
KCLI - Clintonville, Wisconsin, USA
Distance from station: SSW 62mi, 99km
Updated: Mon, 15-Oct-2018 6:15pm CDT
Clear
Clear
 Wind from WSW
Wind: WSW 5 mph , 7 km/h
Temperature: 36°F , 2°C
Wind Chill: 32°F , 0°C
Dew Point: 25°F , -4°C
Humidity: 65%
Barometer: 30.14 inHg , 1020.7 hPa
Clouds: Clear
Visibility: 10 miles , 16 km
2018/10/15 23:15 KCLI 152315Z AUTO 25004KT 10SM CLR 02/M04 A3014 RMK AO2 T00181043
 
KGRB - Ashwaubenon, Wisconsin, USA
Distance from station: S 63mi, 102km
Updated: Mon, 15-Oct-2018 5:53pm CDT
Overcast
Overcast
 Wind from W
Wind: W 12 mph , 19 km/h
Temperature: 39°F , 4°C
Wind Chill: 32°F , 0°C
Dew Point: 25°F , -4°C
Humidity: 56%
Barometer: 30.15 inHg , 1021 hPa
Clouds: Overcast
Visibility: 10 miles , 16 km
Cloud details: Overcast 4600 ft
2018/10/15 22:53 KGRB 152253Z 28010KT 10SM OVC046 04/M04 A3015 RMK AO2 SLP218 T00391044
KEGV - Eagle River, Wisconsin, USA
Distance from station: NW 66mi, 107km
Updated: Mon, 15-Oct-2018 6:15pm CDT
Clear
Clear
 Wind from SW
Wind: SW 8 mph , 13 km/h
Temperature: 34°F , 1°C
Wind Chill: 27°F , -3°C
Dew Point: 21°F , -6°C
Humidity: 60%
Barometer: 30.02 inHg , 1016.6 hPa
Clouds: Clear
Visibility: 10 miles , 16 km
2018/10/15 23:15 KEGV 152315Z AUTO 23007KT 10SM CLR 01/M06 A3002 RMK AO2 T00051059
 
KRHI - Rhinelander, Wisconsin, USA
Distance from station: WNW 68mi, 109km
Updated: Mon, 15-Oct-2018 5:53pm CDT
Clear
Clear
 Wind from WSW
Wind: WSW 7 mph , 11 km/h
Temperature: 36°F , 2°C
Wind Chill: 30°F , -1°C
Dew Point: 21°F , -6°C
Humidity: 56%
Barometer: 30.05 inHg , 1017.6 hPa
Clouds: Clear
Visibility: 10 miles , 16 km
2018/10/15 22:53 KRHI 152253Z AUTO 24006KT 10SM CLR 02/M06 A3005 RMK AO2 SLP195 T00221061
KLNL - Land O Lakes, Wisconsin, USA
Distance from station: NW 74mi, 119km
Updated: Mon, 15-Oct-2018 6:15pm CDT
Clear
Clear
 Wind from SW
Wind: SW 5 mph , 7 km/h
Temperature: 34°F , 1°C
Wind Chill: 29°F , -2°C
Dew Point: 21°F , -6°C
Humidity: 60%
Barometer: 30.02 inHg , 1016.6 hPa
Clouds: Clear
Visibility: 10 miles , 16 km
2018/10/15 23:15 KLNL 152315Z AUTO 23004KT 10SM CLR 01/M06 A3002 RMK AO2 T00111056
 
KSAW - Gwinn/Sawyer, Michigan, USA
Distance from station: NNE 74mi, 120km
Updated: Mon, 15-Oct-2018 5:47pm CDT
Mostly cloudy
Mostly cloudy
 Wind from W
Wind: W 8 mph , 13 km/h
Temperature: 34°F , 1°C
Wind Chill: 27°F , -3°C
Dew Point: 28°F , -2°C
Humidity: 81%
Barometer: 29.99 inHg , 1015.6 hPa
Clouds: Mostly cloudy
Visibility: 10 miles , 16 km
Cloud details: Partly cloudy 2300 ft
Mostly cloudy 3400 ft
2018/10/15 22:47 KSAW 152247Z 26007KT 10SM SCT023 BKN034 01/M02 A2999